Portada
METAR-TAF:

METAR-TAF

Aeroports :

Aeroport Internacional de Mitiga

Trípoli, Líbia

latitud: 32-54N, longitud: 13-17E, altitud: 11 m

Observació

L'informe es va fer fa 28 minuts, a les 03:50 UTC
Vent 6 kt del Est
Temperatura 26°C
Humitat 74%
Pressió 1015 hPa
Visibilitat: 7000 m
Cel clar

METAR: HLLM 180350Z 10006KT 7000 SKC 26/21 Q1015

Hora: 06:18 (04:18 UTC)

Pronòstic

L'informe es va fer fa 11 hores i 18 minuts, a les 17:00 UTC
Pronòstic vàlid del 17 a les 18 UTC al 18 a les 18 UTC
Vent 12 kt del Est
Visibilitat 10 km o més
sense núvols per sota de 1500 mi sense presència de cumulonimbus.
Evolucionant progressivament
l' 17 a les 00 UTC al 18 a les 02 UTC
Vent 2 kt amb direcció variable
Visibilitat: 8000 m
Evolucionant progressivament
l' 18 a les 06 UTC al 18 a les 08 UTC
Vent 10 kt del Est/Nord-Est

TAF: HLLM 171700Z 1718/1818 09012KT CAVOK BECMG 1700/1802 VRB02KT 8000 NSC BECMG 1806/1808 06010KT

Observacions i pronòstics meteorològics de més de 4000 aeroports (METAR i TAF).

Les estacions disponibles són els punts grocs i vermells al mapa.

Posi el ratolí al punt desitjat per veure el nom de l'estació.

Feu clic per veure les observacions i els pronòstics meteorològics.

Per canviar el mapa: feu clic els botons verds amb una creu de color negre per apropar; al botó verd amb un guió per allunyar la imatge; o en les fletxes verdes per a mapes adjacents.


METAR-TAF: